Time;durP1;ratioP1;P1;durP2;ratioP2;P2;SDS_P1;SDS_P2;PMS_P1;PMS_P2;Temp;Humidity;BMP_temperature;BMP_pressure;BME280_temperature;BME280_humidity;BME280_pressure;Samples;Min_cycle;Max_cycle;Signal;HPM_P1;HPM_P2
2023/04/01 04:56:21;;;;;;;;;;;;;;;11.26;62.63;96291.94;4236140;27;10386;-79
2023/04/01 04:58:24;;;;;;;;;;;;;;;11.52;62.66;96296.28;4223225;27;5648;-80
2023/04/01 05:00:27;;;;;;;;;;;;;;;11.74;62.40;96294.13;4224324;27;5902;-80
2023/04/01 05:02:30;;;;;;;;;;;;;;;11.82;62.11;96277.22;4226311;27;5766;-80
2023/04/01 05:04:36;;;;;;;;;;;;;;;12.02;61.79;96283.22;4231499;27;5712;-80
2023/04/01 05:06:39;;;;;;;;;;;;;;;12.10;61.76;96298.84;4220164;28;5727;-80
2023/04/01 05:08:42;;;;;;;;;;;;;;;12.20;61.61;96285.91;4233866;28;5708;-80
2023/04/01 05:10:45;;;;;;;;;;;;;;;12.28;61.47;96292.00;4234025;28;5706;-80
2023/04/01 05:12:50;;;;;;;;;;;;;;;12.30;61.37;96295.22;4232756;28;5725;-80
2023/04/01 05:14:52;;;;;;;;;;;;;;;12.28;61.12;96305.25;4233421;28;5609;-81
2023/04/01 05:16:55;;;;;;;;;;;;;;;12.31;61.08;96299.50;4232585;28;5640;-79
2023/04/01 05:18:58;;;;;;;;;;;;;;;12.29;60.56;96293.63;4232807;28;5715;-80
2023/04/01 05:21:01;;;;;;;;;;;;;;;12.23;60.81;96290.81;4232305;28;5616;-80
2023/04/01 05:23:04;;;;;;;;;;;;;;;12.27;60.74;96295.66;4232568;28;6440;-80
2023/04/01 05:25:10;;;;;;;;;;;;;;;12.31;60.89;96302.97;4232410;28;6227;-80
2023/04/01 05:27:13;;;;;;;;;;;;;;;12.32;60.38;96298.47;4214665;28;5619;-80
2023/04/01 05:29:18;;;;;;;;;;;;;;;12.34;60.73;96307.03;4232460;28;5629;-80
2023/04/01 05:31:21;;;;;;;;;;;;;;;12.39;60.33;96307.19;4232204;28;5612;-81
2023/04/01 05:33:23;;;;;;;;;;;;;;;12.39;60.38;96310.66;4232064;28;5704;-80
2023/04/01 05:35:26;;;;;;;;;;;;;;;12.38;60.32;96305.56;4232274;28;5620;-80
2023/04/01 05:37:29;;;;;;;;;;;;;;;12.41;60.41;96310.44;4232259;28;6326;-81
2023/04/01 05:39:32;;;;;;;;;;;;;;;12.45;60.37;96311.63;4232592;28;6301;-80
2023/04/01 05:41:36;;;;;;;;;;;;;;;12.46;59.96;96307.97;4232140;28;5668;-80
2023/04/01 05:43:39;;;;;;;;;;;;;;;12.51;60.10;96302.81;4232488;28;5633;-80
2023/04/01 05:45:43;;;;;;;;;;;;;;;12.53;59.92;96303.41;4231811;28;5628;-79
2023/04/01 05:47:46;;;;;;;;;;;;;;;12.56;59.87;96304.81;4232481;28;5624;-79
2023/04/01 05:49:49;;;;;;;;;;;;;;;12.58;60.11;96306.22;4232105;28;5700;-78
2023/04/01 05:51:52;;;;;;;;;;;;;;;12.59;59.85;96296.44;4232567;28;5628;-78
2023/04/01 05:53:55;;;;;;;;;;;;;;;12.61;59.89;96297.03;4232695;28;5808;-79
2023/04/01 05:56:02;;;;;;;;;;;;;;;12.62;59.65;96291.50;4227185;28;5672;-79
2023/04/01 05:58:05;;;;;;;;;;;;;;;12.63;59.46;96287.81;4221525;28;5688;-78
2023/04/01 06:00:09;;;;;;;;;;;;;;;12.65;59.75;96298.19;4202950;28;5659;-80
2023/04/01 06:02:13;;;;;;;;;;;;;;;12.66;59.66;96297.97;4220526;28;5616;-80
2023/04/01 06:04:17;;;;;;;;;;;;;;;12.66;59.62;96303.28;4220631;28;5613;-80
2023/04/01 06:06:25;;;;;;;;;;;;;;;12.68;59.38;96300.41;4203953;28;5631;-80
2023/04/01 06:08:30;;;;;;;;;;;;;;;12.67;59.34;96299.59;4214013;28;5620;-81
2023/04/01 06:10:49;;;;;;;;;;;;;;;12.66;59.30;96310.44;4220599;28;5732;-80
2023/04/01 06:13:01;;;;;;;;;;;;;;;12.68;59.15;96314.47;4220399;28;5616;-81
2023/04/01 06:15:18;;;;;;;;;;;;;;;12.70;59.06;96306.34;4220432;28;6390;-80
2023/04/01 06:17:31;;;;;;;;;;;;;;;12.70;59.19;96299.19;4220500;28;5675;-80
2023/04/01 06:19:41;;;;;;;;;;;;;;;12.71;58.75;96300.81;4220902;28;5687;-80
2023/04/01 06:22:03;;;;;;;;;;;;;;;12.73;58.43;96298.75;4220672;28;5620;-80
2023/04/01 06:24:23;;;;;;;;;;;;;;;12.69;59.13;96300.22;4218425;28;5699;-80
2023/04/01 06:26:36;;;;;;;;;;;;;;;12.72;58.76;96294.47;4215714;28;5671;-80
2023/04/01 06:29:14;;;;;;;;;;;;;;;12.69;58.69;96291.44;4211484;28;5644;-80
2023/04/01 06:31:34;;;;;;;;;;;;;;;12.70;58.66;96306.34;4213620;28;5712;-79
2023/04/01 06:33:52;;;;;;;;;;;;;;;12.73;58.80;96308.53;4217499;28;5684;-81
2023/04/01 06:36:12;;;;;;;;;;;;;;;12.72;58.44;96320.19;4219449;28;7050;-80
2023/04/01 06:38:47;;;;;;;;;;;;;;;12.59;58.38;96322.94;4220161;28;6389;-80
2023/04/01 06:41:28;;;;;;;;;;;;;;;12.49;58.37;96316.28;4217342;28;5748;-80
2023/04/01 06:43:47;;;;;;;;;;;;;;;12.48;58.25;96317.31;4220116;28;5665;-80
2023/04/01 06:45:56;;;;;;;;;;;;;;;12.47;58.37;96322.84;4219213;28;6748;-79
2023/04/01 06:48:15;;;;;;;;;;;;;;;12.48;58.51;96330.56;4219985;28;5069;-79
2023/04/01 06:50:27;;;;;;;;;;;;;;;12.45;58.41;96332.81;4220583;28;5692;-79
2023/04/01 06:52:42;;;;;;;;;;;;;;;12.46;58.49;96334.47;4220624;28;5974;-80
2023/04/01 06:54:49;;;;;;;;;;;;;;;12.49;58.50;96334.03;4220488;28;5661;-80
2023/04/01 06:56:58;;;;;;;;;;;;;;;12.50;58.41;96328.50;4205256;28;5742;-79
2023/04/01 06:59:06;;;;;;;;;;;;;;;12.50;58.17;96331.16;4203841;28;5777;-79
2023/04/01 07:01:15;;;;;;;;;;;;;;;12.51;58.34;96334.63;4207985;28;5679;-79
2023/04/01 07:03:22;;;;;;;;;;;;;;;12.55;58.41;96338.47;4216524;28;5846;-79
2023/04/01 07:05:31;;;;;;;;;;;;;;;12.59;58.23;96338.84;4212086;28;5755;-79
2023/04/01 07:07:39;;;;;;;;;;;;;;;12.58;58.27;96338.06;4210451;28;5624;-79
2023/04/01 07:09:49;;;;;;;;;;;;;;;12.62;58.37;96336.56;4214015;28;5628;-79
2023/04/01 07:11:54;;;;;;;;;;;;;;;12.63;58.22;96346.16;4214205;28;5110;-79
2023/04/01 07:14:02;;;;;;;;;;;;;;;12.68;58.21;96342.84;4213315;28;5813;-79
2023/04/01 07:16:13;;;;;;;;;;;;;;;12.73;57.92;96345.66;4207499;28;5691;-79
2023/04/01 07:18:20;;;;;;;;;;;;;;;12.71;58.30;96348.53;4205013;28;5643;-79
2023/04/01 07:20:27;;;;;;;;;;;;;;;12.72;57.94;96347.50;4214973;28;5828;-79
2023/04/01 07:22:35;;;;;;;;;;;;;;;12.72;58.17;96350.16;4212509;28;5827;-78
2023/04/01 07:24:41;;;;;;;;;;;;;;;12.75;58.40;96360.34;4205718;28;6307;-80
2023/04/01 07:26:44;;;;;;;;;;;;;;;12.75;58.07;96362.97;4206806;28;5699;-79
2023/04/01 07:28:47;;;;;;;;;;;;;;;12.72;58.47;96367.91;4214079;28;5842;-78
2023/04/01 07:31:00;;;;;;;;;;;;;;;12.68;58.09;96364.88;4213770;28;5704;-80
2023/04/01 07:33:10;;;;;;;;;;;;;;;12.66;58.47;96361.63;4202176;28;5631;-79
2023/04/01 07:35:24;;;;;;;;;;;;;;;12.63;58.22;96364.72;4218034;28;5617;-80
2023/04/01 07:37:39;;;;;;;;;;;;;;;12.60;58.07;96367.81;4212157;28;5711;-79
2023/04/01 07:39:53;;;;;;;;;;;;;;;12.56;58.50;96371.91;4213944;28;5625;-80
2023/04/01 07:42:03;;;;;;;;;;;;;;;12.56;58.34;96365.78;4215498;28;5707;-79
2023/04/01 07:44:15;;;;;;;;;;;;;;;12.58;58.38;96361.91;4217699;28;5744;-81
2023/04/01 07:46:40;;;;;;;;;;;;;;;12.60;58.06;96370.47;4216446;28;5740;-80
2023/04/01 07:48:54;;;;;;;;;;;;;;;12.63;58.20;96372.69;4218064;28;5696;-79
2023/04/01 07:51:02;;;;;;;;;;;;;;;12.66;58.32;96366.94;4209612;28;5699;-79
2023/04/01 07:53:22;;;;;;;;;;;;;;;12.70;58.38;96373.44;4211431;28;5635;-79
2023/04/01 07:55:31;;;;;;;;;;;;;;;12.69;58.34;96368.34;4214558;28;5628;-80
2023/04/01 07:57:43;;;;;;;;;;;;;;;12.68;58.26;96375.47;4210164;28;5692;-79
2023/04/01 07:59:59;;;;;;;;;;;;;;;12.68;58.13;96364.88;4215698;28;5713;-79
2023/04/01 08:02:11;;;;;;;;;;;;;;;12.70;58.09;96359.38;4217843;28;5616;-79
2023/04/01 08:04:27;;;;;;;;;;;;;;;12.69;57.91;96358.56;4208555;28;5695;-78
2023/04/01 08:06:35;;;;;;;;;;;;;;;12.72;57.91;96366.06;4201891;28;5769;-78
2023/04/01 08:08:51;;;;;;;;;;;;;;;12.77;57.77;96368.88;4209177;28;5733;-79
2023/04/01 08:10:58;;;;;;;;;;;;;;;12.83;57.71;96365.38;4208477;28;6346;-78
2023/04/01 08:13:10;;;;;;;;;;;;;;;12.81;57.56;96364.78;4209406;28;5699;-79
2023/04/01 08:15:21;;;;;;;;;;;;;;;12.82;57.51;96368.25;4214623;28;5847;-79
2023/04/01 08:17:32;;;;;;;;;;;;;;;12.87;57.37;96370.22;4208072;28;6627;-78
2023/04/01 08:19:51;;;;;;;;;;;;;;;12.93;57.36;96364.88;4196146;28;5865;-79
2023/04/01 08:21:59;;;;;;;;;;;;;;;12.97;57.47;96365.25;4206258;28;5838;-79
2023/04/01 08:24:11;;;;;;;;;;;;;;;12.98;56.98;96367.69;4208874;28;5604;-78
2023/04/01 08:26:24;;;;;;;;;;;;;;;13.00;56.83;96364.81;4195167;28;5659;-80
2023/04/01 08:28:33;;;;;;;;;;;;;;;13.05;56.66;96370.28;4211361;28;5731;-80
2023/04/01 08:30:42;;;;;;;;;;;;;;;13.00;56.73;96367.47;4205335;28;5900;-79
2023/04/01 08:32:51;;;;;;;;;;;;;;;13.00;56.95;96357.66;4207191;28;5699;-79
2023/04/01 08:35:03;;;;;;;;;;;;;;;13.01;56.76;96364.56;4208120;28;5834;-81
2023/04/01 08:37:12;;;;;;;;;;;;;;;13.04;56.71;96373.97;4185730;28;6927;-80
2023/04/01 08:39:19;;;;;;;;;;;;;;;13.09;56.81;96380.22;4217429;28;5715;-80
2023/04/01 08:41:38;;;;;;;;;;;;;;;13.09;56.42;96382.06;4206363;28;5740;-80
2023/04/01 08:44:16;;;;;;;;;;;;;;;13.02;56.51;96387.47;4212007;28;6565;-79
2023/04/01 08:46:57;;;;;;;;;;;;;;;12.99;56.54;96387.88;4213278;28;5842;-79
2023/04/01 08:49:27;;;;;;;;;;;;;;;12.95;56.41;96383.22;4180861;28;5620;-80
2023/04/01 08:52:09;;;;;;;;;;;;;;;13.00;56.36;96378.06;4212561;28;5716;-79
2023/04/01 08:54:35;;;;;;;;;;;;;;;13.09;56.61;96382.88;4209596;28;5616;-80
2023/04/01 08:56:43;;;;;;;;;;;;;;;13.09;56.50;96376.75;4179140;28;5918;-80
2023/04/01 08:59:06;;;;;;;;;;;;;;;13.14;56.50;96382.25;4179082;28;5724;-79
2023/04/01 09:01:19;;;;;;;;;;;;;;;13.18;56.57;96372.81;4174417;28;5749;-80
2023/04/01 09:03:39;;;;;;;;;;;;;;;13.23;56.07;96372.97;4183464;28;5816;-80
2023/04/01 09:06:26;;;;;;;;;;;;;;;13.27;56.12;96363.56;4185273;28;5712;-80
2023/04/01 09:08:39;;;;;;;;;;;;;;;13.29;56.13;96373.94;4149726;28;5744;-79
2023/04/01 09:11:06;;;;;;;;;;;;;;;13.30;55.90;96371.06;4171979;28;5712;-78
2023/04/01 09:13:33;;;;;;;;;;;;;;;13.34;55.96;96360.81;4185070;28;5851;-80
2023/04/01 09:15:54;;;;;;;;;;;;;;;13.38;55.42;96368.13;4184957;28;5720;-79
2023/04/01 09:18:27;;;;;;;;;;;;;;;13.51;55.36;96371.69;4171422;28;5738;-79
2023/04/01 09:20:46;;;;;;;;;;;;;;;13.60;55.35;96373.00;4169362;28;5742;-80
2023/04/01 09:23:11;;;;;;;;;;;;;;;13.61;55.34;96378.09;4185562;28;6534;-79
2023/04/01 09:25:40;;;;;;;;;;;;;;;13.67;55.01;96379.84;4185639;28;5924;-79
2023/04/01 09:27:54;;;;;;;;;;;;;;;13.67;55.06;96387.81;4185327;28;5793;-79
2023/04/01 09:30:36;;;;;;;;;;;;;;;13.68;55.03;96376.16;4169845;28;5901;-79
2023/04/01 09:32:59;;;;;;;;;;;;;;;13.67;55.02;96376.38;4144315;28;5833;-79
2023/04/01 09:35:21;;;;;;;;;;;;;;;13.70;55.03;96375.94;4188414;28;7049;-79
2023/04/01 09:37:35;;;;;;;;;;;;;;;13.72;54.98;96378.38;4180816;28;5820;-79
2023/04/01 09:39:48;;;;;;;;;;;;;;;13.68;54.60;96392.09;4176953;28;5831;-79
2023/04/01 09:42:05;;;;;;;;;;;;;;;13.59;54.68;96382.81;4179918;28;5730;-80
2023/04/01 09:44:17;;;;;;;;;;;;;;;13.57;54.97;96381.41;4178350;28;5808;-79
2023/04/01 09:46:28;;;;;;;;;;;;;;;13.52;54.81;96382.06;4188180;28;5700;-79
2023/04/01 09:49:06;;;;;;;;;;;;;;;13.50;54.82;96384.16;4187962;28;5091;-79
2023/04/01 09:51:23;;;;;;;;;;;;;;;13.46;54.90;96372.31;4147459;28;7741;-78
2023/04/01 09:53:43;;;;;;;;;;;;;;;13.46;54.96;96374.16;4172859;28;5854;-79
2023/04/01 09:56:34;;;;;;;;;;;;;;;13.46;54.89;96371.50;4200016;28;5644;-78
2023/04/01 09:59:12;;;;;;;;;;;;;;;13.53;54.92;96372.25;4179644;28;5740;-78
2023/04/01 10:01:46;;;;;;;;;;;;;;;13.61;54.75;96372.78;4194616;28;5639;-78
2023/04/01 10:04:19;;;;;;;;;;;;;;;13.64;54.80;96384.81;4221761;28;5750;-79
2023/04/01 10:07:00;;;;;;;;;;;;;;;13.62;54.82;96378.91;4204512;28;5698;-79
2023/04/01 10:09:31;;;;;;;;;;;;;;;13.60;54.89;96373.81;4210839;28;5832;-79
2023/04/01 10:12:08;;;;;;;;;;;;;;;13.65;54.83;96375.78;4206618;28;6908;-79
2023/04/01 10:14:43;;;;;;;;;;;;;;;13.69;55.08;96366.34;4220488;28;5604;-79
2023/04/01 10:17:21;;;;;;;;;;;;;;;13.71;55.28;96360.81;4217169;28;5703;-79
2023/04/01 10:19:52;;;;;;;;;;;;;;;13.73;55.23;96354.25;4220820;28;5760;-79
2023/04/01 10:22:25;;;;;;;;;;;;;;;13.82;55.12;96355.56;4212709;28;5616;-79
2023/04/01 10:25:05;;;;;;;;;;;;;;;13.91;54.85;96348.09;4220640;28;5624;-80
2023/04/01 10:27:31;;;;;;;;;;;;;;;13.95;54.69;96358.06;4220651;28;5699;-80
2023/04/01 10:30:12;;;;;;;;;;;;;;;13.97;54.93;96350.66;4218675;28;6293;-79
2023/04/01 10:32:40;;;;;;;;;;;;;;;14.05;54.50;96344.22;4220174;28;5613;-79
2023/04/01 10:35:22;;;;;;;;;;;;;;;14.09;54.41;96336.59;4220631;28;6339;-80
2023/04/01 10:37:52;;;;;;;;;;;;;;;14.13;54.56;96330.59;4220251;28;5604;-79
2023/04/01 10:40:28;;;;;;;;;;;;;;;14.23;54.37;96330.88;4162169;28;5635;-79
2023/04/01 10:43:12;;;;;;;;;;;;;;;14.32;54.14;96331.34;4178803;28;5723;-79
2023/04/01 10:45:48;;;;;;;;;;;;;;;14.33;54.31;96325.00;4168485;28;5606;-79
2023/04/01 10:48:15;;;;;;;;;;;;;;;14.30;54.12;96324.66;4164096;28;5624;-79
2023/04/01 10:50:26;;;;;;;;;;;;;;;14.33;54.34;96316.22;4152018;28;5699;-79
2023/04/01 10:53:03;;;;;;;;;;;;;;;14.36;54.35;96319.22;4153996;28;5624;-79
2023/04/01 10:55:39;;;;;;;;;;;;;;;14.36;54.10;96313.09;4135589;28;5684;-80
2023/04/01 10:58:15;;;;;;;;;;;;;;;14.33;54.22;96308.22;4163617;28;5778;-79
2023/04/01 11:00:46;;;;;;;;;;;;;;;14.32;54.11;96310.09;4168131;28;6291;-79
2023/04/01 11:03:25;;;;;;;;;;;;;;;14.33;53.92;96310.91;4168440;28;5589;-80
2023/04/01 11:06:05;;;;;;;;;;;;;;;14.38;54.08;96306.50;4151997;28;5603;-79
2023/04/01 11:08:58;;;;;;;;;;;;;;;14.39;53.88;96307.34;4158598;28;5604;-79
2023/04/01 11:11:57;;;;;;;;;;;;;;;14.24;53.60;96334.34;4157786;28;6329;-80
2023/04/01 11:14:44;;;;;;;;;;;;;;;14.08;53.82;96346.44;4165835;28;5605;-80
2023/04/01 11:17:12;;;;;;;;;;;;;;;13.94;54.00;96358.28;4163514;28;5089;-79
2023/04/01 11:19:44;;;;;;;;;;;;;;;13.79;54.42;96360.50;4132517;28;5628;-80
2023/04/01 11:21:56;;;;;;;;;;;;;;;13.63;54.79;96370.72;4172591;28;5716;-79
2023/04/01 11:24:21;;;;;;;;;;;;;;;13.48;54.90;96364.13;4202834;28;5695;-78
2023/04/01 11:26:35;;;;;;;;;;;;;;;13.40;55.36;96355.44;4202437;28;6543;-78
2023/04/01 11:29:01;;;;;;;;;;;;;;;13.36;55.50;96346.31;4213629;28;5620;-79
2023/04/01 11:31:19;;;;;;;;;;;;;;;13.39;55.43;96335.25;4218584;28;5438;-78
2023/04/01 11:33:29;;;;;;;;;;;;;;;13.49;55.41;96332.06;4219527;28;7238;-78
2023/04/01 11:35:56;;;;;;;;;;;;;;;13.63;55.60;96335.38;4219439;28;5609;-78
2023/04/01 11:38:11;;;;;;;;;;;;;;;13.72;55.64;96323.41;4219611;28;5621;-79
2023/04/01 11:40:25;;;;;;;;;;;;;;;13.85;55.44;96322.41;4219180;28;5707;-80
2023/04/01 11:42:41;;;;;;;;;;;;;;;13.90;55.44;96326.00;4219183;28;5605;-78
2023/04/01 11:44:54;;;;;;;;;;;;;;;13.90;55.25;96319.88;4219059;28;5613;-78
2023/04/01 11:47:18;;;;;;;;;;;;;;;13.98;55.25;96306.28;4219513;28;5620;-78
2023/04/01 11:49:43;;;;;;;;;;;;;;;14.05;55.46;96311.53;4200715;28;5628;-78
2023/04/01 11:52:05;;;;;;;;;;;;;;;14.06;55.24;96305.16;4196816;28;5639;-79
2023/04/01 11:54:25;;;;;;;;;;;;;;;14.10;55.40;96301.81;4218787;28;5613;-78
2023/04/01 11:56:52;;;;;;;;;;;;;;;14.19;55.06;96291.69;4219411;28;5842;-79
2023/04/01 11:59:25;;;;;;;;;;;;;;;14.22;55.01;96302.66;4219038;28;6302;-79
2023/04/01 12:01:50;;;;;;;;;;;;;;;14.24;55.46;96294.44;4202222;28;5738;-79
2023/04/01 12:04:27;;;;;;;;;;;;;;;14.31;54.99;96289.03;4202450;28;5842;-79
2023/04/01 12:06:39;;;;;;;;;;;;;;;14.35;55.04;96284.88;4185740;28;5613;-79
2023/04/01 12:08:54;;;;;;;;;;;;;;;14.38;54.87;96279.91;4219832;28;5620;-79
2023/04/01 12:11:05;;;;;;;;;;;;;;;14.36;54.56;96274.00;4219189;28;5657;-79
2023/04/01 12:13:20;;;;;;;;;;;;;;;14.39;54.96;96270.09;4218953;28;5604;-79
2023/04/01 12:15:31;;;;;;;;;;;;;;;14.35;54.83;96275.06;4218674;28;5716;-79
2023/04/01 12:17:42;;;;;;;;;;;;;;;14.37;54.79;96272.97;4218904;28;5064;-79
2023/04/01 12:19:52;;;;;;;;;;;;;;;14.40;55.03;96272.53;4218887;28;5597;-79
2023/04/01 12:22:11;;;;;;;;;;;;;;;14.45;55.00;96264.69;4218944;28;5608;-78
2023/04/01 12:24:41;;;;;;;;;;;;;;;14.47;54.57;96259.94;4219115;28;5700;-79
2023/04/01 12:26:57;;;;;;;;;;;;;;;14.49;54.87;96257.88;4202168;28;5772;-79
2023/04/01 12:29:08;;;;;;;;;;;;;;;14.48;54.55;96250.94;4216586;28;5613;-80
2023/04/01 12:31:28;;;;;;;;;;;;;;;14.50;54.22;96251.53;4218398;28;5680;-78
2023/04/01 12:33:53;;;;;;;;;;;;;;;14.55;54.37;96248.97;4204348;28;5709;-79
2023/04/01 12:36:08;;;;;;;;;;;;;;;14.58;53.95;96250.34;4218818;28;5613;-79
2023/04/01 12:38:27;;;;;;;;;;;;;;;14.60;53.79;96250.94;4218789;28;5680;-79
2023/04/01 12:41:03;;;;;;;;;;;;;;;14.70;53.65;96250.34;4218706;28;5754;-80
2023/04/01 12:43:38;;;;;;;;;;;;;;;14.79;53.54;96238.31;4218418;28;5712;-79
2023/04/01 12:45:50;;;;;;;;;;;;;;;14.89;53.18;96233.22;4178330;28;5609;-79
2023/04/01 12:48:35;;;;;;;;;;;;;;;14.99;53.00;96236.09;4218341;28;5956;-80
2023/04/01 12:51:16;;;;;;;;;;;;;;;15.03;52.88;96226.59;4202067;28;5073;-80
2023/04/01 12:53:39;;;;;;;;;;;;;;;15.08;53.00;96229.38;4132746;28;6026;-80
2023/04/01 12:55:44;;;;;;;;;;;;;;;15.06;52.56;96227.97;4150137;28;7592;-80
2023/04/01 12:58:08;;;;;;;;;;;;;;;15.01;52.49;96227.88;4150321;28;5712;-80
2023/04/01 13:00:30;;;;;;;;;;;;;;;14.97;52.46;96216.91;4150544;28;5764;-81
2023/04/01 13:02:46;;;;;;;;;;;;;;;14.97;52.46;96219.56;4149921;28;5862;-81
2023/04/01 13:05:15;;;;;;;;;;;;;;;14.95;52.47;96221.66;4150562;28;5796;-81
2023/04/01 13:07:46;;;;;;;;;;;;;;;14.99;52.07;96217.47;4153128;28;5776;-81
2023/04/01 13:09:58;;;;;;;;;;;;;;;15.04;52.06;96216.75;4137108;28;5882;-80
2023/04/01 13:12:19;;;;;;;;;;;;;;;15.06;51.96;96215.50;4153325;28;5749;-81
2023/04/01 13:14:45;;;;;;;;;;;;;;;15.01;51.82;96214.56;4137545;28;5826;-80
2023/04/01 13:16:58;;;;;;;;;;;;;;;14.95;51.74;96212.84;4137001;28;5794;-80
2023/04/01 13:19:08;;;;;;;;;;;;;;;14.89;51.87;96216.44;4137149;28;5876;-81
2023/04/01 13:21:20;;;;;;;;;;;;;;;14.90;51.98;96210.88;4145001;28;5919;-81
2023/04/01 13:23:38;;;;;;;;;;;;;;;14.96;51.89;96206.50;4153830;28;5697;-81
2023/04/01 13:25:48;;;;;;;;;;;;;;;15.01;51.92;96202.06;4153275;28;5704;-81
2023/04/01 13:28:07;;;;;;;;;;;;;;;15.01;51.75;96202.06;4137049;28;5743;-80
2023/04/01 13:30:25;;;;;;;;;;;;;;;15.07;51.69;96195.81;4194343;28;5621;-80
2023/04/01 13:32:38;;;;;;;;;;;;;;;15.14;51.53;96193.81;4221867;28;5848;-80
2023/04/01 13:35:04;;;;;;;;;;;;;;;15.17;51.51;96189.88;4222051;28;5600;-80
2023/04/01 13:37:21;;;;;;;;;;;;;;;15.19;51.49;96181.66;4221578;28;5617;-80
2023/04/01 13:39:57;;;;;;;;;;;;;;;15.16;51.21;96180.25;4221583;28;5724;-80
2023/04/01 13:42:15;;;;;;;;;;;;;;;15.21;51.53;96177.72;4221594;28;5621;-80
2023/04/01 13:44:24;;;;;;;;;;;;;;;15.22;51.43;96173.19;4220987;28;5621;-80
2023/04/01 13:46:42;;;;;;;;;;;;;;;15.22;51.37;96170.53;4221232;28;5748;-80
2023/04/01 13:49:10;;;;;;;;;;;;;;;15.21;51.05;96171.59;4221535;28;5621;-80
2023/04/01 13:52:00;;;;;;;;;;;;;;;15.19;51.29;96171.81;4221254;28;5605;-80
2023/04/01 13:54:45;;;;;;;;;;;;;;;15.22;51.10;96163.34;4153103;28;5715;-80
2023/04/01 13:56:58;;;;;;;;;;;;;;;15.25;50.99;96162.06;4120643;28;6509;-80
2023/04/01 13:59:20;;;;;;;;;;;;;;;15.28;50.78;96158.91;4120760;28;5787;-80
2023/04/01 14:01:33;;;;;;;;;;;;;;;15.30;50.90;96162.97;4120487;28;5941;-80
2023/04/01 14:04:00;;;;;;;;;;;;;;;15.29;50.71;96157.88;4120844;28;5870;-80
2023/04/01 14:06:18;;;;;;;;;;;;;;;15.27;50.61;96162.63;4117920;28;5930;-81
2023/04/01 14:08:34;;;;;;;;;;;;;;;15.26;50.60;96158.34;4112962;28;5912;-80
2023/04/01 14:10:43;;;;;;;;;;;;;;;15.24;50.83;96160.44;4104236;28;5956;-82
2023/04/01 14:12:57;;;;;;;;;;;;;;;15.21;50.62;96156.41;4120108;28;5811;-81
2023/04/01 14:15:24;;;;;;;;;;;;;;;15.18;50.67;96156.09;4119644;28;5795;-81
2023/04/01 14:17:46;;;;;;;;;;;;;;;15.09;50.45;96153.00;4119116;28;5898;-81
2023/04/01 14:20:14;;;;;;;;;;;;;;;15.03;50.76;96160.03;4119818;28;5874;-81
2023/04/01 14:22:24;;;;;;;;;;;;;;;14.94;50.49;96156.13;4111766;28;5796;-81
2023/04/01 14:24:46;;;;;;;;;;;;;;;14.88;50.64;96162.41;4125302;28;5794;-81
2023/04/01 14:27:38;;;;;;;;;;;;;;;14.87;50.58;96160.81;4182216;28;5704;-82
2023/04/01 14:29:52;;;;;;;;;;;;;;;14.90;50.34;96162.19;4181749;28;6408;-79
2023/04/01 14:32:07;;;;;;;;;;;;;;;14.93;50.45;96154.53;4181251;28;5683;-79
2023/04/01 14:34:22;;;;;;;;;;;;;;;14.92;50.18;96155.56;4186154;28;5687;-80
2023/04/01 14:36:52;;;;;;;;;;;;;;;14.89;50.52;96147.25;4185609;28;5690;-81
2023/04/01 14:39:10;;;;;;;;;;;;;;;14.89;50.35;96150.72;4170335;28;5707;-80
2023/04/01 14:41:22;;;;;;;;;;;;;;;14.92;50.38;96136.13;4178389;28;5884;-79
2023/04/01 14:43:47;;;;;;;;;;;;;;;14.92;50.36;96146.78;4179102;28;5706;-80
2023/04/01 14:46:09;;;;;;;;;;;;;;;14.91;50.50;96145.16;4186533;28;5674;-80
2023/04/01 14:48:24;;;;;;;;;;;;;;;14.94;50.27;96150.00;4179217;28;5704;-80
2023/04/01 14:50:31;;;;;;;;;;;;;;;14.91;50.45;96150.47;4178261;28;6384;-80
2023/04/01 14:52:37;;;;;;;;;;;;;;;14.80;50.59;96155.59;4177236;28;5658;-80
2023/04/01 14:54:44;;;;;;;;;;;;;;;14.67;50.68;96160.38;4175761;28;5627;-79
2023/04/01 14:56:50;;;;;;;;;;;;;;;14.61;50.98;96170.13;4215541;28;5600;-80
2023/04/01 14:58:58;;;;;;;;;;;;;;;14.57;51.01;96172.41;4219794;28;5624;-80
2023/04/01 15:01:14;;;;;;;;;;;;;;;14.45;50.83;96165.50;4219624;28;5610;-79
2023/04/01 15:03:25;;;;;;;;;;;;;;;14.35;51.11;96168.69;4203332;28;5702;-80
2023/04/01 15:05:39;;;;;;;;;;;;;;;14.25;51.30;96160.47;4219453;28;5620;-79
2023/04/01 15:08:01;;;;;;;;;;;;;;;14.25;51.53;96168.47;4219920;28;5613;-79
2023/04/01 15:10:19;;;;;;;;;;;;;;;14.24;51.49;96164.19;4219504;28;5707;-79
2023/04/01 15:12:30;;;;;;;;;;;;;;;14.18;51.72;96165.13;4219194;28;5617;-79
2023/04/01 15:14:48;;;;;;;;;;;;;;;14.16;51.83;96167.22;4214866;28;5704;-79
2023/04/01 15:17:01;;;;;;;;;;;;;;;14.17;51.69;96166.16;4213016;28;5628;-79
2023/04/01 15:19:15;;;;;;;;;;;;;;;14.19;52.00;96164.09;4209054;28;5735;-79
2023/04/01 15:21:45;;;;;;;;;;;;;;;14.23;51.94;96159.91;4209175;28;5820;-79
2023/04/01 15:23:57;;;;;;;;;;;;;;;14.30;51.88;96160.63;4210260;28;5597;-78
2023/04/01 15:26:18;;;;;;;;;;;;;;;14.33;51.98;96154.81;4209255;28;5069;-78
2023/04/01 15:28:30;;;;;;;;;;;;;;;14.38;52.00;96149.59;4209813;28;5083;-78
2023/04/01 15:30:37;;;;;;;;;;;;;;;14.40;52.02;96157.38;4209240;28;5687;-78
2023/04/01 15:32:51;;;;;;;;;;;;;;;14.40;52.20;96154.72;4209239;28;5711;-79
2023/04/01 15:35:01;;;;;;;;;;;;;;;14.35;52.14;96152.75;4217639;28;5733;-79
2023/04/01 15:37:16;;;;;;;;;;;;;;;14.40;52.27;96147.56;4205787;28;5867;-78
2023/04/01 15:39:27;;;;;;;;;;;;;;;14.41;52.31;96145.69;4209104;28;5616;-79
2023/04/01 15:41:42;;;;;;;;;;;;;;;14.40;52.09;96144.88;4211345;28;5692;-80
2023/04/01 15:43:48;;;;;;;;;;;;;;;14.46;52.17;96136.00;4217047;28;5711;-80
2023/04/01 15:46:10;;;;;;;;;;;;;;;14.51;51.91;96140.63;4212105;28;5715;-79
2023/04/01 15:48:28;;;;;;;;;;;;;;;14.54;52.13;96148.13;4214691;28;5711;-80
2023/04/01 15:50:48;;;;;;;;;;;;;;;14.54;52.01;96148.94;4211451;28;5624;-79
2023/04/01 15:53:03;;;;;;;;;;;;;;;14.52;52.09;96136.94;4217583;28;6283;-79
2023/04/01 15:55:26;;;;;;;;;;;;;;;14.48;52.27;96147.19;4217010;28;5704;-79
2023/04/01 15:57:39;;;;;;;;;;;;;;;14.39;52.36;96153.09;4217914;28;5688;-79
2023/04/01 16:00:21;;;;;;;;;;;;;;;14.30;52.23;96149.19;4217294;28;5704;-79
2023/04/01 16:02:33;;;;;;;;;;;;;;;14.21;52.44;96144.19;4201323;28;5769;-80
2023/04/01 16:04:49;;;;;;;;;;;;;;;14.19;52.58;96142.81;4209204;28;5775;-79
2023/04/01 16:07:10;;;;;;;;;;;;;;;14.17;52.53;96144.91;4212851;28;5864;-81
2023/04/01 16:09:37;;;;;;;;;;;;;;;14.14;52.53;96140.03;4208566;28;7238;-80
2023/04/01 16:11:54;;;;;;;;;;;;;;;14.17;52.72;96140.41;4208745;28;7688;-81
2023/04/01 16:14:12;;;;;;;;;;;;;;;14.15;52.60;96137.13;4208232;28;5720;-82
2023/04/01 16:16:26;;;;;;;;;;;;;;;14.17;52.62;96151.03;4217304;28;5672;-81
2023/04/01 16:19:02;;;;;;;;;;;;;;;14.20;52.56;96147.91;4206128;28;5621;-81
2023/04/01 16:21:14;;;;;;;;;;;;;;;14.22;52.58;96148.47;4217107;28;5613;-80
2023/04/01 16:23:24;;;;;;;;;;;;;;;14.20;52.37;96139.13;4200131;28;5707;-80
2023/04/01 16:25:34;;;;;;;;;;;;;;;14.21;52.48;96146.84;4210935;28;5621;-80
2023/04/01 16:27:45;;;;;;;;;;;;;;;14.20;52.53;96150.56;4203558;28;5609;-80
2023/04/01 16:29:54;;;;;;;;;;;;;;;14.19;52.31;96158.75;4213041;28;5636;-80
2023/04/01 16:32:06;;;;;;;;;;;;;;;14.17;52.32;96153.69;4209051;28;5090;-80
2023/04/01 16:34:17;;;;;;;;;;;;;;;14.15;52.46;96146.97;4208748;28;6484;-81
2023/04/01 16:36:30;;;;;;;;;;;;;;;14.14;52.50;96146.16;4207437;28;5068;-81
2023/04/01 16:38:45;;;;;;;;;;;;;;;14.13;52.24;96155.16;4205301;28;6266;-81
2023/04/01 16:41:02;;;;;;;;;;;;;;;14.11;52.52;96157.25;4212676;28;5077;-81
2023/04/01 16:43:20;;;;;;;;;;;;;;;14.10;52.41;96150.31;4200546;28;5702;-81
2023/04/01 16:45:36;;;;;;;;;;;;;;;14.08;52.25;96154.25;4208284;28;5628;-82
2023/04/01 16:47:47;;;;;;;;;;;;;;;14.04;52.53;96151.22;4202850;28;5600;-82
2023/04/01 16:49:57;;;;;;;;;;;;;;;14.02;52.45;96147.19;4216055;28;5824;-81
2023/04/01 16:52:15;;;;;;;;;;;;;;;14.00;52.17;96152.75;4210472;28;5702;-81
2023/04/01 16:54:29;;;;;;;;;;;;;;;13.96;52.09;96160.38;4208322;28;5601;-79
2023/04/01 16:56:42;;;;;;;;;;;;;;;13.96;52.51;96160.38;4206723;28;5624;-80
2023/04/01 16:59:04;;;;;;;;;;;;;;;13.97;52.35;96164.63;4207124;28;5694;-80
2023/04/01 17:01:15;;;;;;;;;;;;;;;13.97;52.50;96161.19;4207039;28;5691;-81
2023/04/01 17:03:24;;;;;;;;;;;;;;;13.96;52.28;96162.22;4207275;28;5647;-80